createdAt,value
2023-09-05T00:01:50.372Z,76.76
2023-09-05T00:04:57.287Z,77.22
2023-09-05T00:08:01.247Z,77.17
2023-09-05T00:11:05.618Z,77.44
2023-09-05T00:14:12.236Z,76.38
2023-09-05T00:17:15.996Z,75.94
2023-09-05T00:20:21.153Z,76.43
2023-09-05T00:23:28.406Z,76.75
2023-09-05T00:26:32.721Z,77.36
2023-09-05T00:29:39.159Z,77.81
2023-09-05T00:32:43.549Z,77.58
2023-09-05T00:35:50.260Z,78.66
2023-09-05T00:38:54.191Z,78.19
2023-09-05T00:41:58.443Z,78.04
2023-09-05T00:45:04.481Z,78.21
2023-09-05T00:48:09.939Z,77.75
2023-09-05T00:51:14.845Z,78.05
2023-09-05T00:54:19.304Z,77.81
2023-09-05T00:57:24.111Z,78.20
2023-09-05T01:00:29.500Z,78.97
2023-09-05T01:03:33.690Z,78.68
2023-09-05T01:06:48.373Z,80.16
2023-09-05T01:09:58.353Z,79.47
2023-09-05T01:13:02.314Z,80.13
2023-09-05T01:16:11.181Z,80.04
2023-09-05T01:19:18.606Z,80.66
2023-09-05T01:22:36.255Z,80.64
2023-09-05T01:25:41.808Z,79.38
2023-09-05T01:28:48.403Z,80.30
2023-09-05T01:31:52.406Z,79.53
2023-09-05T01:34:56.095Z,78.89
2023-09-05T01:38:01.674Z,79.59
2023-09-05T01:41:07.194Z,78.93
2023-09-05T01:44:11.142Z,78.96
2023-09-05T01:47:15.241Z,78.58
2023-09-05T01:50:21.008Z,78.97
2023-09-05T01:53:25.814Z,78.80
2023-09-05T01:56:32.116Z,79.33
2023-09-05T01:59:36.145Z,78.67
2023-09-05T02:02:39.981Z,79.75
2023-09-05T02:05:43.927Z,80.45
2023-09-05T02:08:47.893Z,80.71
2023-09-05T02:11:53.274Z,79.82
2023-09-05T02:14:57.213Z,79.37
2023-09-05T02:18:03.718Z,79.11
2023-09-05T02:21:07.769Z,80.34
2023-09-05T02:24:11.732Z,79.16
2023-09-05T02:27:17.061Z,78.90
2023-09-05T02:30:21.519Z,79.83
2023-09-05T02:33:26.411Z,80.41
2023-09-05T02:36:32.370Z,80.67
2023-09-05T02:39:36.332Z,79.82
2023-09-05T02:42:41.667Z,81.26
2023-09-05T02:45:53.941Z,81.27
2023-09-05T02:48:58.498Z,81.54
2023-09-05T02:52:02.597Z,81.74
2023-09-05T02:55:07.368Z,81.13
2023-09-05T02:58:12.778Z,80.17
2023-09-05T03:01:17.685Z,80.20
2023-09-05T03:04:21.597Z,79.63
2023-09-05T03:07:25.641Z,80.88
2023-09-05T03:10:29.570Z,80.91
2023-09-05T03:13:34.950Z,80.56
2023-09-05T03:16:39.079Z,81.77
2023-09-05T03:19:43.160Z,82.77
2023-09-05T03:22:47.238Z,81.99
2023-09-05T03:25:52.441Z,81.59
2023-09-05T03:29:01.240Z,82.23
2023-09-05T03:32:05.772Z,82.49
2023-09-05T03:35:11.489Z,83.68
2023-09-05T03:38:15.470Z,84.17
2023-09-05T03:41:19.410Z,83.41
2023-09-05T03:44:24.792Z,83.81
2023-09-05T03:47:28.864Z,83.84
2023-09-05T03:50:32.928Z,83.70
2023-09-05T03:53:38.451Z,83.51
2023-09-05T03:56:44.384Z,83.36
2023-09-05T03:59:51.470Z,83.17
2023-09-05T04:02:55.408Z,84.13
2023-09-05T04:06:03.010Z,84.61
2023-09-05T04:09:07.111Z,85.35
2023-09-05T04:12:11.331Z,83.98
2023-09-05T04:15:21.326Z,84.80
2023-09-05T04:18:25.422Z,84.25
2023-09-05T04:21:29.352Z,83.72
2023-09-05T04:24:33.281Z,83.89
2023-09-05T04:27:37.798Z,83.47
2023-09-05T04:30:43.228Z,84.88
2023-09-05T04:33:47.148Z,84.39
2023-09-05T04:36:51.052Z,84.93
2023-09-05T04:39:55.907Z,85.51
2023-09-05T04:42:59.686Z,86.12
2023-09-05T04:46:07.517Z,85.23
2023-09-05T04:49:11.953Z,85.98
2023-09-05T04:52:16.323Z,84.68
2023-09-05T04:55:20.183Z,85.53
2023-09-05T04:58:24.365Z,86.17
2023-09-05T05:01:29.949Z,85.15
2023-09-05T05:04:33.933Z,85.41
2023-09-05T05:07:38.143Z,85.94
2023-09-05T05:10:42.244Z,87.21
2023-09-05T05:13:46.085Z,87.33
2023-09-05T05:16:51.569Z,88.79
2023-09-05T05:19:55.530Z,88.37
2023-09-05T05:22:59.407Z,89.39
2023-09-05T05:26:03.364Z,89.73
2023-09-05T05:29:07.435Z,90.02
2023-09-05T05:32:17.752Z,90.93
2023-09-05T05:35:21.828Z,89.40
2023-09-05T05:38:26.183Z,89.83
2023-09-05T05:41:30.639Z,87.15
2023-09-05T05:44:35.019Z,85.41
2023-09-05T05:47:42.870Z,87.90
2023-09-05T05:50:47.130Z,86.12
2023-09-05T05:53:56.458Z,87.96
2023-09-05T05:57:01.205Z,87.95
2023-09-05T06:00:06.199Z,87.81
2023-09-05T06:03:17.808Z,88.72
2023-09-05T06:06:21.987Z,88.54
2023-09-05T06:09:25.892Z,88.45
2023-09-05T06:12:29.899Z,89.24
2023-09-05T06:15:36.439Z,87.90
2023-09-05T06:18:43.351Z,88.04
2023-09-05T06:21:48.066Z,86.96
2023-09-05T06:24:52.402Z,87.09
2023-09-05T06:27:56.432Z,87.10
2023-09-05T06:31:00.973Z,86.97
2023-09-05T06:34:06.529Z,85.89
2023-09-05T06:37:11.522Z,87.15
2023-09-05T06:40:16.876Z,86.81
2023-09-05T06:43:21.212Z,85.66
2023-09-05T06:46:25.195Z,86.91
2023-09-05T06:49:30.639Z,86.00
2023-09-05T06:52:34.517Z,87.87
2023-09-05T06:55:38.683Z,87.66
2023-09-05T06:58:42.706Z,88.55
2023-09-05T07:01:46.791Z,88.06
2023-09-05T07:04:52.299Z,87.90
2023-09-05T07:07:56.269Z,88.20
2023-09-05T07:11:00.383Z,88.12
2023-09-05T07:14:05.381Z,89.16
2023-09-05T07:17:09.892Z,90.31
2023-09-05T07:20:15.528Z,91.77
2023-09-05T07:23:20.469Z,91.88
2023-09-05T07:26:24.752Z,92.30
2023-09-05T07:29:28.860Z,92.68
2023-09-05T07:32:32.886Z,93.73
2023-09-05T07:35:41.217Z,92.42
2023-09-05T07:38:48.603Z,92.91
2023-09-05T07:41:52.866Z,92.96
2023-09-05T07:44:56.840Z,92.66
2023-09-05T07:48:00.867Z,91.77
2023-09-05T07:51:08.793Z,90.40
2023-09-05T07:54:16.207Z,90.30
2023-09-05T07:57:20.151Z,90.85
2023-09-05T08:00:28.367Z,90.51
2023-09-05T08:03:32.146Z,89.49
2023-09-05T08:06:38.300Z,90.71
2023-09-05T08:09:43.053Z,89.90
2023-09-05T08:12:47.071Z,89.38
2023-09-05T08:15:52.808Z,90.53
2023-09-05T08:18:56.711Z,89.41
2023-09-05T08:22:02.188Z,86.92
2023-09-05T08:25:08.599Z,85.42
2023-09-05T08:28:14.117Z,85.35
2023-09-05T08:31:19.052Z,83.03
2023-09-05T08:34:23.158Z,79.20
2023-09-05T08:37:29.041Z,77.82
2023-09-05T08:40:37.643Z,75.03
2023-09-05T08:43:42.073Z,70.58
2023-09-05T08:46:48.218Z,69.88
2023-09-05T08:49:52.723Z,67.63
2023-09-05T08:52:59.975Z,67.17
2023-09-05T08:56:07.952Z,65.53
2023-09-05T08:59:11.960Z,65.62
2023-09-05T09:02:17.616Z,62.87
2023-09-05T09:05:22.465Z,63.42
2023-09-05T09:08:28.179Z,62.45
2023-09-05T09:11:34.056Z,61.61
2023-09-05T09:14:38.585Z,62.48
2023-09-05T09:17:43.778Z,63.18
2023-09-05T09:20:48.799Z,64.48
2023-09-05T09:23:54.019Z,64.02
2023-09-05T09:26:57.975Z,64.28
2023-09-05T09:30:02.084Z,64.11
2023-09-05T09:33:07.046Z,64.02
2023-09-05T09:36:13.220Z,65.71
2023-09-05T09:39:18.802Z,64.19
2023-09-05T09:42:25.611Z,64.07
2023-09-05T09:45:29.631Z,65.57
2023-09-05T09:48:36.381Z,63.76
2023-09-05T09:51:45.662Z,64.64
2023-09-05T09:54:52.593Z,64.88
2023-09-05T09:58:03.461Z,66.91
2023-09-05T10:01:09.453Z,65.99
2023-09-05T10:04:14.354Z,64.16
2023-09-05T10:07:21.782Z,64.07
2023-09-05T10:10:30.328Z,64.40
2023-09-05T10:13:39.351Z,63.59
2023-09-05T10:16:47.264Z,62.63
2023-09-05T10:19:53.184Z,60.88
2023-09-05T10:22:57.154Z,59.04
2023-09-05T10:26:04.645Z,59.72
2023-09-05T10:29:36.278Z,58.50
2023-09-05T10:32:45.629Z,59.03
2023-09-05T10:35:49.653Z,57.26
2023-09-05T10:38:58.897Z,56.96
2023-09-05T10:42:04.268Z,56.67
2023-09-05T10:45:20.632Z,56.83
2023-09-05T10:48:35.084Z,58.03
2023-09-05T10:51:39.047Z,57.56
2023-09-05T10:54:43.237Z,58.33
2023-09-05T10:57:51.675Z,57.88
2023-09-05T11:00:56.318Z,58.26
2023-09-05T11:04:05.454Z,57.37
2023-09-05T11:07:11.660Z,57.40
2023-09-05T11:10:28.076Z,58.54
2023-09-05T11:13:33.570Z,58.64
2023-09-05T11:16:48.512Z,58.52
2023-09-05T11:19:54.925Z,58.88
2023-09-05T11:22:59.325Z,60.42
2023-09-05T11:26:05.543Z,60.71
2023-09-05T11:29:10.915Z,61.17
2023-09-05T11:32:16.500Z,60.78
2023-09-05T11:35:21.329Z,61.96
2023-09-05T11:38:31.302Z,61.27
2023-09-05T11:41:42.335Z,60.95
2023-09-05T11:44:47.828Z,60.84
2023-09-05T11:47:53.332Z,62.14
2023-09-05T11:50:57.916Z,60.58
2023-09-05T11:54:02.347Z,60.70
2023-09-05T11:57:08.974Z,59.69
2023-09-05T12:00:17.125Z,58.35
2023-09-05T12:03:21.414Z,57.73
2023-09-05T12:06:25.742Z,57.57
2023-09-05T12:09:32.250Z,57.32
2023-09-05T12:12:36.164Z,58.30
2023-09-05T12:15:42.001Z,58.45
2023-09-05T12:18:47.300Z,57.70
2023-09-05T12:21:51.819Z,57.82
2023-09-05T12:25:15.270Z,57.72
2023-09-05T12:28:23.509Z,57.80
2023-09-05T12:31:29.767Z,58.11
2023-09-05T12:34:33.821Z,57.76
2023-09-05T12:37:37.803Z,58.22
2023-09-05T12:40:43.913Z,57.50
2023-09-05T12:43:47.863Z,57.58
2023-09-05T12:46:55.865Z,58.05
2023-09-05T12:50:11.241Z,57.69
2023-09-05T12:53:15.891Z,57.07
2023-09-05T12:56:21.125Z,57.00
2023-09-05T12:59:26.280Z,56.32
2023-09-05T13:02:31.810Z,55.94
2023-09-05T13:05:35.966Z,56.60
2023-09-05T13:08:41.138Z,57.28
2023-09-05T13:11:45.008Z,57.26
2023-09-05T13:14:48.960Z,56.72
2023-09-05T13:17:54.847Z,56.75
2023-09-05T13:20:58.661Z,56.63
2023-09-05T13:24:02.608Z,56.92
2023-09-05T13:27:07.089Z,58.09
2023-09-05T13:30:12.501Z,61.49
2023-09-05T13:33:17.980Z,63.60
2023-09-05T13:36:22.012Z,65.31
2023-09-05T13:39:28.489Z,64.98
2023-09-05T13:42:32.704Z,64.85
2023-09-05T13:45:36.799Z,64.18
2023-09-05T13:48:42.159Z,64.02
2023-09-05T13:51:46.295Z,62.87
2023-09-05T13:54:50.384Z,64.21
2023-09-05T13:57:54.582Z,62.73
2023-09-05T14:00:59.269Z,61.63
2023-09-05T14:04:04.668Z,61.79
2023-09-05T14:07:08.643Z,61.68
2023-09-05T14:10:15.886Z,60.73
2023-09-05T14:13:19.991Z,60.80
2023-09-05T14:16:23.921Z,60.83
2023-09-05T14:19:29.494Z,60.53
2023-09-05T14:22:33.502Z,59.50
2023-09-05T14:25:37.970Z,61.74
2023-09-05T14:28:42.289Z,61.30
2023-09-05T14:31:49.127Z,61.47
2023-09-05T14:34:56.362Z,61.88
2023-09-05T14:38:00.263Z,62.38
2023-09-05T14:41:04.285Z,62.45
2023-09-05T14:44:08.393Z,63.32
2023-09-05T14:47:13.797Z,63.16
2023-09-05T14:50:20.037Z,63.51
2023-09-05T14:53:24.003Z,63.51
2023-09-05T14:56:27.879Z,64.20
2023-09-05T14:59:31.920Z,65.29
2023-09-05T15:02:35.864Z,65.07
2023-09-05T15:05:42.298Z,64.60
2023-09-05T15:08:46.725Z,64.53
2023-09-05T15:11:50.692Z,64.69
2023-09-05T15:14:54.591Z,64.50
2023-09-05T15:17:58.575Z,65.03
2023-09-05T15:21:04.122Z,64.85
2023-09-05T15:24:08.801Z,63.75
2023-09-05T15:27:14.473Z,64.22
2023-09-05T15:30:20.152Z,64.28
2023-09-05T15:33:24.330Z,64.04
2023-09-05T15:36:32.845Z,63.58
2023-09-05T15:39:36.914Z,63.92
2023-09-05T15:42:42.186Z,63.25
2023-09-05T15:45:49.988Z,64.21
2023-09-05T15:48:54.102Z,64.01
2023-09-05T15:52:00.374Z,63.41
2023-09-05T15:55:04.468Z,64.33
2023-09-05T15:58:10.092Z,64.38
2023-09-05T16:01:18.667Z,63.72
2023-09-05T16:04:22.994Z,63.93
2023-09-05T16:07:28.787Z,63.50
2023-09-05T16:10:32.796Z,63.95
2023-09-05T16:13:39.778Z,64.37
2023-09-05T16:16:43.712Z,64.48
2023-09-05T16:19:53.060Z,64.41
2023-09-05T16:22:58.517Z,63.51
2023-09-05T16:26:02.461Z,63.93
2023-09-05T16:29:06.328Z,63.42
2023-09-05T16:32:11.830Z,63.85
2023-09-05T16:35:17.089Z,63.44
2023-09-05T16:38:23.068Z,64.00
2023-09-05T16:41:31.230Z,64.13
2023-09-05T16:44:35.203Z,65.79
2023-09-05T16:47:39.051Z,67.80
2023-09-05T16:50:44.378Z,68.98
2023-09-05T16:53:49.896Z,71.07
2023-09-05T16:56:53.992Z,72.00
2023-09-05T16:59:58.014Z,73.63
2023-09-05T17:03:02.138Z,75.52
2023-09-05T17:06:06.404Z,74.77
2023-09-05T17:09:12.071Z,77.53
2023-09-05T17:12:16.186Z,76.56
2023-09-05T17:15:20.282Z,78.17
2023-09-05T17:18:24.452Z,79.81
2023-09-05T17:21:28.576Z,79.16
2023-09-05T17:24:34.302Z,80.56
2023-09-05T17:27:38.236Z,80.00
2023-09-05T17:30:42.927Z,80.94
2023-09-05T17:33:47.009Z,80.69
2023-09-05T17:36:51.032Z,81.89
2023-09-05T17:39:56.522Z,81.22
2023-09-05T17:43:00.490Z,79.79
2023-09-05T17:46:07.268Z,80.07
2023-09-05T17:49:11.249Z,81.21
2023-09-05T17:52:15.295Z,81.69
2023-09-05T17:55:20.905Z,81.91
2023-09-05T17:58:24.806Z,80.51
2023-09-05T18:01:28.885Z,82.03
2023-09-05T18:04:33.100Z,80.77
2023-09-05T18:07:42.787Z,84.60
2023-09-05T18:10:48.530Z,82.21
2023-09-05T18:13:52.497Z,83.41
2023-09-05T18:16:56.352Z,84.94
2023-09-05T18:20:00.406Z,83.59
2023-09-05T18:23:04.509Z,82.59
2023-09-05T18:26:11.615Z,83.77
2023-09-05T18:29:16.837Z,83.12
2023-09-05T18:32:21.455Z,83.04
2023-09-05T18:35:25.820Z,84.40
2023-09-05T18:38:31.286Z,86.60
2023-09-05T18:41:39.937Z,88.06
2023-09-05T18:44:45.136Z,87.47
2023-09-05T18:47:49.077Z,87.89
2023-09-05T18:50:53.226Z,88.76
2023-09-05T18:53:57.240Z,89.77
2023-09-05T18:57:02.844Z,88.32
2023-09-05T19:00:07.898Z,88.26
2023-09-05T19:03:11.959Z,88.00
2023-09-05T19:06:16.096Z,87.59
2023-09-05T19:09:22.087Z,89.30
2023-09-05T19:12:28.987Z,88.37
2023-09-05T19:15:33.001Z,89.04
2023-09-05T19:18:37.851Z,88.06
2023-09-05T19:21:44.170Z,87.74
2023-09-05T19:24:48.350Z,86.60
2023-09-05T19:27:53.703Z,87.79
2023-09-05T19:30:57.682Z,88.01
2023-09-05T19:34:01.873Z,89.44
2023-09-05T19:37:06.422Z,90.40
2023-09-05T19:40:10.749Z,89.35
2023-09-05T19:43:59.370Z,89.52
2023-09-05T19:47:04.938Z,88.32
2023-09-05T19:50:09.832Z,88.26
2023-09-05T19:53:13.921Z,87.35
2023-09-05T19:56:17.793Z,86.32
2023-09-05T19:59:21.852Z,86.79
2023-09-05T20:02:27.409Z,86.61
2023-09-05T20:05:31.563Z,86.46
2023-09-05T20:08:35.561Z,86.68
2023-09-05T20:11:39.481Z,86.17
2023-09-05T20:14:43.553Z,86.58
2023-09-05T20:17:48.900Z,86.85
2023-09-05T20:20:53.868Z,86.40
2023-09-05T20:23:58.067Z,87.33
2023-09-05T20:27:02.143Z,87.13
2023-09-05T20:30:06.927Z,88.32
2023-09-05T20:33:12.497Z,86.93
2023-09-05T20:36:16.512Z,86.96
2023-09-05T20:39:20.340Z,85.71
2023-09-05T20:42:24.437Z,86.26
2023-09-05T20:45:29.119Z,86.71
2023-09-05T20:48:35.109Z,86.66
2023-09-05T20:51:40.365Z,86.44
2023-09-05T20:54:44.308Z,87.85
2023-09-05T20:57:48.248Z,87.66
2023-09-05T21:00:53.224Z,88.63
2023-09-05T21:03:58.845Z,88.36
2023-09-05T21:07:03.025Z,88.41
2023-09-05T21:10:07.647Z,89.07
2023-09-05T21:13:12.805Z,88.91
2023-09-05T21:16:16.973Z,89.03
2023-09-05T21:19:22.450Z,88.46
2023-09-05T21:22:27.181Z,88.98
2023-09-05T21:25:31.142Z,88.83
2023-09-05T21:28:35.246Z,88.73
2023-09-05T21:31:39.374Z,90.29
2023-09-05T21:34:44.773Z,90.90
2023-09-05T21:37:49.383Z,91.25
2023-09-05T21:40:53.890Z,90.31
2023-09-05T21:43:57.940Z,90.65
2023-09-05T21:47:01.791Z,90.87
2023-09-05T21:50:09.990Z,91.87
2023-09-05T21:53:14.114Z,92.21
2023-09-05T21:56:18.045Z,92.68
2023-09-05T21:59:22.352Z,93.69
2023-09-05T22:02:27.106Z,92.96
2023-09-05T22:05:33.542Z,93.32
2023-09-05T22:08:37.580Z,93.47
2023-09-05T22:11:41.573Z,93.90
2023-09-05T22:14:45.455Z,94.43
2023-09-05T22:17:49.634Z,93.71
2023-09-05T22:20:59.034Z,93.48
2023-09-05T22:24:03.318Z,94.46
2023-09-05T22:27:07.750Z,93.42
2023-09-05T22:30:13.996Z,92.38
2023-09-05T22:33:17.906Z,91.64
2023-09-05T22:36:51.573Z,92.58
2023-09-05T22:39:58.862Z,93.13
2023-09-05T22:43:06.904Z,94.13
2023-09-05T22:46:10.822Z,94.38
2023-09-05T22:49:14.853Z,95.15
2023-09-05T22:52:20.181Z,96.26
2023-09-05T22:55:24.763Z,95.40
2023-09-05T22:58:28.953Z,95.56
2023-09-05T23:01:33.227Z,95.41
2023-09-05T23:04:37.331Z,96.32
2023-09-05T23:07:43.132Z,95.83
2023-09-05T23:10:47.147Z,96.49
2023-09-05T23:13:51.018Z,95.88
2023-09-05T23:16:55.099Z,95.52
2023-09-05T23:20:00.371Z,95.47
2023-09-05T23:23:06.633Z,95.72
2023-09-05T23:26:11.435Z,96.43
2023-09-05T23:29:16.488Z,95.75
2023-09-05T23:32:20.499Z,95.99
2023-09-05T23:35:24.360Z,93.54
2023-09-05T23:38:31.325Z,93.39
2023-09-05T23:41:35.194Z,93.06
2023-09-05T23:44:39.117Z,93.78
2023-09-05T23:47:43.979Z,91.54
2023-09-05T23:50:47.985Z,91.38
2023-09-05T23:53:53.258Z,90.69
2023-09-05T23:56:56.993Z,91.47
